createdAt,value
2019-06-20T00:01:02.134Z,5.40
2019-06-20T00:06:09.044Z,5.30
2019-06-20T00:11:15.550Z,5.45
2019-06-20T00:16:22.212Z,5.78
2019-06-20T00:21:28.691Z,5.67
2019-06-20T00:26:35.246Z,5.28
2019-06-20T00:31:41.895Z,5.97
2019-06-20T00:36:51.244Z,5.40
2019-06-20T00:41:56.745Z,5.53
2019-06-20T00:47:03.375Z,5.92
2019-06-20T00:52:10.012Z,5.70
2019-06-20T00:57:16.571Z,5.25
2019-06-20T01:02:23.202Z,5.90
2019-06-20T01:07:29.713Z,5.95
2019-06-20T01:12:36.331Z,6.22
2019-06-20T01:17:42.953Z,6.12
2019-06-20T01:22:49.630Z,5.75
2019-06-20T01:27:56.201Z,5.97
2019-06-20T01:33:02.683Z,5.62
2019-06-20T01:38:09.448Z,5.45
2019-06-20T01:43:16.975Z,5.55
2019-06-20T01:48:23.670Z,5.40
2019-06-20T01:53:30.232Z,5.80
2019-06-20T01:58:36.864Z,5.30
2019-06-20T02:03:44.227Z,5.05
2019-06-20T02:08:50.872Z,5.30
2019-06-20T02:14:06.830Z,5.50
2019-06-20T02:19:05.859Z,6.22
2019-06-20T02:24:12.429Z,6.80
2019-06-20T02:29:19.124Z,6.90
2019-06-20T02:34:25.753Z,6.62
2019-06-20T02:39:32.374Z,6.95
2019-06-20T02:44:39.003Z,7.28
2019-06-20T02:49:45.569Z,6.50
2019-06-20T02:54:52.205Z,7.00
2019-06-20T02:59:58.849Z,7.12
2019-06-20T03:05:05.954Z,7.25
2019-06-20T03:10:12.889Z,7.85
2019-06-20T03:15:19.642Z,9.03
2019-06-20T03:20:26.286Z,9.33
2019-06-20T03:25:32.911Z,9.23
2019-06-20T03:30:39.600Z,8.58
2019-06-20T03:35:47.164Z,10.10
2019-06-20T03:40:53.758Z,9.45
2019-06-20T03:46:00.343Z,11.25
2019-06-20T03:51:06.851Z,11.78
2019-06-20T03:56:13.417Z,10.32
2019-06-20T04:01:20.003Z,10.60
2019-06-20T04:06:26.569Z,10.48
2019-06-20T04:11:33.044Z,10.40
2019-06-20T04:16:39.599Z,10.70
2019-06-20T04:21:46.096Z,9.60
2019-06-20T04:26:52.648Z,8.85
2019-06-20T04:31:59.208Z,8.35
2019-06-20T04:37:05.716Z,8.35
2019-06-20T04:42:12.301Z,8.35
2019-06-20T04:47:18.705Z,7.05
2019-06-20T04:52:25.112Z,4.28
2019-06-20T04:57:36.032Z,3.05
2019-06-20T05:02:43.812Z,3.02
2019-06-20T05:07:50.474Z,2.65
2019-06-20T05:12:57.117Z,2.42
2019-06-20T05:18:03.599Z,2.17
2019-06-20T05:23:10.125Z,2.10
2019-06-20T05:28:16.598Z,2.10
2019-06-20T05:33:23.087Z,2.65
2019-06-20T05:38:29.593Z,1.90
2019-06-20T05:43:36.018Z,1.90
2019-06-20T05:48:43.306Z,2.17
2019-06-20T05:53:50.021Z,2.40
2019-06-20T05:58:56.515Z,2.15
2019-06-20T06:04:03.116Z,2.70
2019-06-20T06:09:09.821Z,2.20
2019-06-20T06:14:16.348Z,2.10
2019-06-20T06:19:23.469Z,2.10
2019-06-20T06:24:30.022Z,2.27
2019-06-20T06:29:36.596Z,2.42
2019-06-20T06:34:43.195Z,2.35
2019-06-20T06:39:49.686Z,2.35
2019-06-20T06:44:56.269Z,2.50
2019-06-20T06:50:04.266Z,2.30
2019-06-20T06:55:11.492Z,2.17
2019-06-20T07:00:19.147Z,2.08
2019-06-20T07:05:25.781Z,2.40
2019-06-20T07:10:33.487Z,2.42
2019-06-20T07:15:40.142Z,2.27
2019-06-20T07:20:47.582Z,2.20
2019-06-20T07:25:54.157Z,2.10
2019-06-20T07:31:00.834Z,1.80
2019-06-20T07:36:07.833Z,2.10
2019-06-20T07:41:14.391Z,2.05
2019-06-20T07:46:20.882Z,2.10
2019-06-20T07:51:27.444Z,1.85
2019-06-20T07:56:34.072Z,1.60
2019-06-20T08:01:40.764Z,1.70
2019-06-20T08:06:47.323Z,2.30
2019-06-20T08:11:53.947Z,2.20
2019-06-20T08:17:00.597Z,2.02
2019-06-20T08:22:07.325Z,2.72
2019-06-20T08:27:14.965Z,2.10
2019-06-20T08:32:21.728Z,2.05
2019-06-20T08:37:28.443Z,2.30
2019-06-20T08:42:35.096Z,3.98
2019-06-20T08:47:41.957Z,2.20
2019-06-20T08:52:48.697Z,2.22
2019-06-20T08:57:56.296Z,1.90
2019-06-20T09:08:11.567Z,1.65
2019-06-20T09:13:18.865Z,2.20
2019-06-20T09:18:25.435Z,1.85
2019-06-20T09:23:32.067Z,1.52
2019-06-20T09:28:38.707Z,1.90
2019-06-20T09:33:45.372Z,3.85
2019-06-20T09:38:52.474Z,1.50
2019-06-20T09:44:00.159Z,1.45
2019-06-20T09:49:06.871Z,1.87
2019-06-20T09:54:13.521Z,1.75
2019-06-20T09:59:27.537Z,1.60
2019-06-20T10:04:28.394Z,1.32
2019-06-20T10:09:35.226Z,1.50
2019-06-20T10:14:41.874Z,1.27
2019-06-20T10:19:49.817Z,1.60
2019-06-20T10:24:57.866Z,1.55
2019-06-20T10:30:14.203Z,1.30
2019-06-20T10:35:14.975Z,1.20
2019-06-20T10:40:22.365Z,1.32
2019-06-20T10:45:31.083Z,1.30
2019-06-20T10:50:37.723Z,1.32
2019-06-20T10:55:44.953Z,1.10
2019-06-20T11:00:51.531Z,1.20
2019-06-20T11:05:58.193Z,1.35
2019-06-20T11:11:04.931Z,1.30
2019-06-20T11:16:11.569Z,1.17
2019-06-20T11:21:18.227Z,0.90
2019-06-20T11:26:24.854Z,0.90
2019-06-20T11:31:31.506Z,1.20
2019-06-20T11:36:38.679Z,0.50
2019-06-20T11:41:45.514Z,0.95
2019-06-20T11:46:52.104Z,1.02
2019-06-20T11:51:58.676Z,0.95
2019-06-20T11:57:05.485Z,0.82
2019-06-20T12:02:12.129Z,1.05
2019-06-20T12:07:18.652Z,1.12
2019-06-20T12:12:25.291Z,0.90
2019-06-20T12:17:31.868Z,0.90
2019-06-20T12:22:39.933Z,1.00
2019-06-20T12:27:47.635Z,1.32
2019-06-20T12:32:57.494Z,1.00
2019-06-20T12:38:04.091Z,1.20
2019-06-20T12:43:10.601Z,1.30
2019-06-20T12:48:17.017Z,1.30
2019-06-20T12:53:23.433Z,1.10
2019-06-20T12:58:29.976Z,1.40
2019-06-20T13:03:38.522Z,1.50
2019-06-20T13:08:45.226Z,1.22
2019-06-20T13:13:51.840Z,1.42
2019-06-20T13:18:58.543Z,1.50
2019-06-20T13:24:05.125Z,1.50
2019-06-20T13:29:11.603Z,1.10
2019-06-20T13:34:19.932Z,1.00
2019-06-20T13:39:33.878Z,1.00
2019-06-20T13:44:37.260Z,1.17
2019-06-20T13:49:45.739Z,1.50
2019-06-20T13:54:52.522Z,1.40
2019-06-20T13:59:59.089Z,1.10
2019-06-20T14:05:06.446Z,1.20
2019-06-20T14:10:13.176Z,1.05
2019-06-20T14:15:20.940Z,1.10
2019-06-20T14:20:27.540Z,1.00
2019-06-20T14:25:34.385Z,1.00
2019-06-20T14:30:41.097Z,0.80
2019-06-20T14:35:49.289Z,0.80
2019-06-20T14:40:56.088Z,1.00
2019-06-20T14:46:02.713Z,0.78
2019-06-20T14:51:09.388Z,0.70
2019-06-20T14:56:15.953Z,0.88
2019-06-20T15:01:22.516Z,0.70
2019-06-20T15:06:29.147Z,0.78
2019-06-20T15:11:36.096Z,0.68
2019-06-20T15:16:46.193Z,1.00
2019-06-20T15:21:52.131Z,0.78
2019-06-20T15:26:58.844Z,0.78
2019-06-20T15:32:05.505Z,0.80
2019-06-20T15:37:12.174Z,0.68
2019-06-20T15:42:22.395Z,0.70
2019-06-20T15:47:29.448Z,0.53
2019-06-20T15:52:36.119Z,0.80
2019-06-20T15:57:42.750Z,0.60
2019-06-20T16:02:49.296Z,0.68
2019-06-20T16:07:55.924Z,0.90
2019-06-20T16:13:03.528Z,0.80
2019-06-20T16:18:10.189Z,0.60
2019-06-20T16:23:16.859Z,0.78
2019-06-20T16:28:23.494Z,1.00
2019-06-20T16:33:29.968Z,0.80
2019-06-20T16:38:36.579Z,0.88
2019-06-20T16:43:43.228Z,0.80
2019-06-20T16:48:49.774Z,0.82
2019-06-20T16:53:59.168Z,0.80
2019-06-20T16:59:05.879Z,0.90
2019-06-20T17:04:12.470Z,0.95
2019-06-20T17:09:20.294Z,1.05
2019-06-20T17:14:26.822Z,0.90
2019-06-20T17:19:33.877Z,0.90
2019-06-20T17:24:43.710Z,1.10
2019-06-20T17:29:52.717Z,1.17
2019-06-20T17:35:00.013Z,1.15
2019-06-20T17:40:08.776Z,1.32
2019-06-20T17:45:16.056Z,1.10
2019-06-20T17:50:25.768Z,1.15
2019-06-20T17:55:31.872Z,1.30
2019-06-20T18:00:39.039Z,1.30
2019-06-20T18:05:49.942Z,1.40
2019-06-20T18:10:57.145Z,1.20
2019-06-20T18:16:05.693Z,1.27
2019-06-20T18:21:14.705Z,1.00
2019-06-20T18:26:22.117Z,1.00
2019-06-20T18:31:29.330Z,1.10
2019-06-20T18:36:37.723Z,1.15
2019-06-20T18:41:47.339Z,1.20
2019-06-20T18:46:52.720Z,1.10
2019-06-20T18:51:59.429Z,0.85
2019-06-20T18:57:06.171Z,1.00
2019-06-20T19:02:12.895Z,1.00
2019-06-20T19:07:19.574Z,0.90
2019-06-20T19:12:26.144Z,0.90
2019-06-20T19:17:32.642Z,1.00
2019-06-20T19:22:39.368Z,1.15
2019-06-20T19:27:47.026Z,0.70
2019-06-20T19:32:55.043Z,1.40
2019-06-20T19:38:01.553Z,1.10
2019-06-20T19:43:08.270Z,1.10
2019-06-20T19:48:15.234Z,1.10
2019-06-20T19:53:21.861Z,1.10
2019-06-20T19:58:28.527Z,1.15
2019-06-20T20:03:35.348Z,0.93
2019-06-20T20:08:42.021Z,1.45
2019-06-20T20:13:48.637Z,1.30
2019-06-20T20:18:55.260Z,1.20
2019-06-20T20:24:01.862Z,1.57
2019-06-20T20:29:09.628Z,1.55
2019-06-20T20:34:16.076Z,1.50
2019-06-20T20:39:22.597Z,1.60
2019-06-20T20:44:29.838Z,1.50
2019-06-20T20:49:36.336Z,1.50
2019-06-20T20:54:42.756Z,1.42
2019-06-20T20:59:49.355Z,1.45
2019-06-20T21:04:55.966Z,1.60
2019-06-20T21:10:02.612Z,1.35
2019-06-20T21:15:09.819Z,1.35
2019-06-20T21:20:17.151Z,1.75
2019-06-20T21:25:23.797Z,1.50
2019-06-20T21:30:30.534Z,1.10
2019-06-20T21:35:38.122Z,1.27
2019-06-20T21:40:44.732Z,1.30
2019-06-20T21:45:51.351Z,1.45
2019-06-20T21:50:58.012Z,1.45
2019-06-20T21:56:04.667Z,1.30
2019-06-20T22:01:12.102Z,1.20
2019-06-20T22:06:24.000Z,1.32
2019-06-20T22:11:28.767Z,1.40
2019-06-20T22:16:35.426Z,1.25
2019-06-20T22:21:41.983Z,1.10
2019-06-20T22:26:48.640Z,1.50
2019-06-20T22:31:55.287Z,1.40
2019-06-20T22:37:01.871Z,1.20
2019-06-20T22:42:08.513Z,1.30
2019-06-20T22:47:15.160Z,1.20
2019-06-20T22:52:21.737Z,1.32
2019-06-20T22:57:28.314Z,1.30
2019-06-20T23:02:34.874Z,1.55
2019-06-20T23:07:41.543Z,1.40
2019-06-20T23:12:48.185Z,1.65
2019-06-20T23:17:54.599Z,1.67
2019-06-20T23:23:01.243Z,1.90
2019-06-20T23:28:07.887Z,2.33
2019-06-20T23:33:15.520Z,2.17
2019-06-20T23:38:22.128Z,1.55
2019-06-20T23:43:28.680Z,1.82
2019-06-20T23:48:35.099Z,1.80
2019-06-20T23:53:41.744Z,1.82
2019-06-20T23:58:48.289Z,1.70
